Bristol, Connecticut
Current Conditions -  °F | °C
As of 4:53 AM on Thursday 27 Nov 2014 (Local Time) from KMMK Reporting Station
Overcast Overcast  
Wind Chill: 27°   Ceiling: 8500
Heat Index: 34°   Visibility: 10mi
Dew Point: 28°   Wind: 8mph
Humidity: 79%   Direction: 310°NW
Pressure: 29.88"   Gusts: NA
Location:  41.67°N, 72.95°W
Report Text: KMMK 270953Z AUTO 31007KT 10SM FEW026 BKN085 OVC120 01/M02 A2988 RMK AO2 SLP119 T00111022 TSNO
Loading
Personal Weather Stations






























Interactive Weather Map New forecast layout! Learn more

10-Day Weather Forecast

Advertisements
Track Severe Weather on mobile